sensor_id;sensor_type;location;lat;lon;timestamp;P1;durP1;ratioP1;P2;durP2;ratioP2
33413;SDS011;60055;41.884;12.534;2022-11-18T00:01:48;10.80;;;2.55;;
33413;SDS011;60055;41.884;12.534;2022-11-18T00:04:14;7.28;;;2.40;;
33413;SDS011;60055;41.884;12.534;2022-11-18T00:06:39;11.27;;;2.33;;
33413;SDS011;60055;41.884;12.534;2022-11-18T00:09:05;9.82;;;2.70;;
33413;SDS011;60055;41.884;12.534;2022-11-18T00:11:31;9.55;;;2.83;;
33413;SDS011;60055;41.884;12.534;2022-11-18T00:14:16;11.18;;;2.65;;
33413;SDS011;60055;41.884;12.534;2022-11-18T00:16:57;8.70;;;2.40;;
33413;SDS011;60055;41.884;12.534;2022-11-18T00:19:26;9.60;;;2.88;;
33413;SDS011;60055;41.884;12.534;2022-11-18T00:21:53;8.77;;;2.20;;
33413;SDS011;60055;41.884;12.534;2022-11-18T00:24:20;7.15;;;2.10;;
33413;SDS011;60055;41.884;12.534;2022-11-18T00:26:46;7.43;;;1.73;;
33413;SDS011;60055;41.884;12.534;2022-11-18T00:29:12;5.65;;;1.92;;
33413;SDS011;60055;41.884;12.534;2022-11-18T00:31:38;7.68;;;2.00;;
33413;SDS011;60055;41.884;12.534;2022-11-18T00:34:04;6.97;;;1.80;;
33413;SDS011;60055;41.884;12.534;2022-11-18T00:36:30;6.65;;;2.00;;
33413;SDS011;60055;41.884;12.534;2022-11-18T00:38:57;5.90;;;2.03;;
33413;SDS011;60055;41.884;12.534;2022-11-18T00:41:23;10.32;;;2.60;;
33413;SDS011;60055;41.884;12.534;2022-11-18T00:44:09;11.68;;;3.47;;
33413;SDS011;60055;41.884;12.534;2022-11-18T00:46:34;13.50;;;3.35;;
33413;SDS011;60055;41.884;12.534;2022-11-18T00:49:00;12.05;;;3.00;;
33413;SDS011;60055;41.884;12.534;2022-11-18T00:51:25;9.10;;;2.33;;
33413;SDS011;60055;41.884;12.534;2022-11-18T00:53:51;6.70;;;2.20;;
33413;SDS011;60055;41.884;12.534;2022-11-18T00:56:18;7.03;;;2.00;;
33413;SDS011;60055;41.884;12.534;2022-11-18T00:58:44;12.15;;;2.10;;
33413;SDS011;60055;41.884;12.534;2022-11-18T01:01:09;8.65;;;2.10;;
33413;SDS011;60055;41.884;12.534;2022-11-18T01:03:35;9.30;;;1.85;;
33413;SDS011;60055;41.884;12.534;2022-11-18T01:06:01;9.43;;;2.25;;
33413;SDS011;60055;41.884;12.534;2022-11-18T01:08:27;11.43;;;2.30;;
33413;SDS011;60055;41.884;12.534;2022-11-18T01:10:52;11.40;;;2.30;;
33413;SDS011;60055;41.884;12.534;2022-11-18T01:13:18;11.07;;;2.13;;
33413;SDS011;60055;41.884;12.534;2022-11-18T01:18:13;11.98;;;2.25;;
33413;SDS011;60055;41.884;12.534;2022-11-18T01:20:43;9.23;;;2.30;;
33413;SDS011;60055;41.884;12.534;2022-11-18T01:23:09;7.13;;;2.00;;
33413;SDS011;60055;41.884;12.534;2022-11-18T01:25:36;9.40;;;2.00;;
33413;SDS011;60055;41.884;12.534;2022-11-18T01:28:04;10.70;;;2.22;;
33413;SDS011;60055;41.884;12.534;2022-11-18T01:30:37;10.60;;;2.30;;
33413;SDS011;60055;41.884;12.534;2022-11-18T01:33:03;7.70;;;2.20;;
33413;SDS011;60055;41.884;12.534;2022-11-18T01:35:33;12.73;;;2.28;;
33413;SDS011;60055;41.884;12.534;2022-11-18T01:38:02;10.20;;;2.00;;
33413;SDS011;60055;41.884;12.534;2022-11-18T01:40:28;8.35;;;1.90;;
33413;SDS011;60055;41.884;12.534;2022-11-18T01:42:55;8.25;;;2.08;;
33413;SDS011;60055;41.884;12.534;2022-11-18T01:45:31;11.93;;;2.55;;
33413;SDS011;60055;41.884;12.534;2022-11-18T01:50:51;10.38;;;2.33;;
33413;SDS011;60055;41.884;12.534;2022-11-18T01:53:23;8.65;;;2.00;;
33413;SDS011;60055;41.884;12.534;2022-11-18T01:55:59;7.90;;;2.05;;
33413;SDS011;60055;41.884;12.534;2022-11-18T02:01:13;7.05;;;2.08;;
33413;SDS011;60055;41.884;12.534;2022-11-18T02:03:39;10.95;;;2.22;;
33413;SDS011;60055;41.884;12.534;2022-11-18T02:06:06;9.98;;;2.05;;
33413;SDS011;60055;41.884;12.534;2022-11-18T02:08:34;8.43;;;1.98;;
33413;SDS011;60055;41.884;12.534;2022-11-18T02:11:02;11.50;;;2.10;;
33413;SDS011;60055;41.884;12.534;2022-11-18T02:13:28;12.23;;;2.40;;
33413;SDS011;60055;41.884;12.534;2022-11-18T02:16:07;9.80;;;2.40;;
33413;SDS011;60055;41.884;12.534;2022-11-18T02:19:01;14.85;;;2.63;;
33413;SDS011;60055;41.884;12.534;2022-11-18T02:29:48;12.55;;;2.90;;
33413;SDS011;60055;41.884;12.534;2022-11-18T02:32:31;12.10;;;2.40;;
33413;SDS011;60055;41.884;12.534;2022-11-18T02:35:08;11.13;;;2.38;;
33413;SDS011;60055;41.884;12.534;2022-11-18T02:38:08;15.07;;;2.50;;
33413;SDS011;60055;41.884;12.534;2022-11-18T02:40:48;11.57;;;2.60;;
33413;SDS011;60055;41.884;12.534;2022-11-18T02:43:22;13.18;;;3.13;;
33413;SDS011;60055;41.884;12.534;2022-11-18T02:45:53;15.00;;;2.80;;
33413;SDS011;60055;41.884;12.534;2022-11-18T02:48:23;14.35;;;2.80;;
33413;SDS011;60055;41.884;12.534;2022-11-18T02:50:51;13.95;;;2.97;;
33413;SDS011;60055;41.884;12.534;2022-11-18T02:53:20;19.45;;;2.90;;
33413;SDS011;60055;41.884;12.534;2022-11-18T02:55:46;14.23;;;2.90;;
33413;SDS011;60055;41.884;12.534;2022-11-18T02:58:14;20.63;;;3.17;;
33413;SDS011;60055;41.884;12.534;2022-11-18T03:00:43;12.15;;;2.92;;
33413;SDS011;60055;41.884;12.534;2022-11-18T03:03:28;14.80;;;3.17;;
33413;SDS011;60055;41.884;12.534;2022-11-18T03:08:44;13.40;;;2.95;;
33413;SDS011;60055;41.884;12.534;2022-11-18T03:13:48;11.75;;;2.78;;
33413;SDS011;60055;41.884;12.534;2022-11-18T03:16:24;12.18;;;2.72;;
33413;SDS011;60055;41.884;12.534;2022-11-18T03:18:56;15.10;;;2.65;;
33413;SDS011;60055;41.884;12.534;2022-11-18T03:21:36;17.90;;;3.20;;
33413;SDS011;60055;41.884;12.534;2022-11-18T03:26:50;17.63;;;3.08;;
33413;SDS011;60055;41.884;12.534;2022-11-18T03:29:24;18.73;;;2.80;;
33413;SDS011;60055;41.884;12.534;2022-11-18T03:31:57;17.88;;;2.70;;
33413;SDS011;60055;41.884;12.534;2022-11-18T03:34:43;16.08;;;2.83;;
33413;SDS011;60055;41.884;12.534;2022-11-18T03:37:11;15.57;;;2.88;;
33413;SDS011;60055;41.884;12.534;2022-11-18T03:39:41;17.02;;;2.92;;
33413;SDS011;60055;41.884;12.534;2022-11-18T03:42:11;17.13;;;2.90;;
33413;SDS011;60055;41.884;12.534;2022-11-18T03:44:49;15.10;;;2.70;;
33413;SDS011;60055;41.884;12.534;2022-11-18T03:47:25;13.25;;;2.80;;
33413;SDS011;60055;41.884;12.534;2022-11-18T03:50:03;16.73;;;2.95;;
33413;SDS011;60055;41.884;12.534;2022-11-18T03:52:36;12.93;;;3.00;;
33413;SDS011;60055;41.884;12.534;2022-11-18T03:55:08;16.50;;;3.55;;
33413;SDS011;60055;41.884;12.534;2022-11-18T03:57:43;15.32;;;3.60;;
33413;SDS011;60055;41.884;12.534;2022-11-18T04:00:20;17.92;;;3.35;;
33413;SDS011;60055;41.884;12.534;2022-11-18T04:02:46;16.80;;;3.47;;
33413;SDS011;60055;41.884;12.534;2022-11-18T04:05:14;18.50;;;4.07;;
33413;SDS011;60055;41.884;12.534;2022-11-18T04:07:50;15.10;;;3.60;;
33413;SDS011;60055;41.884;12.534;2022-11-18T04:13:05;17.00;;;3.55;;
33413;SDS011;60055;41.884;12.534;2022-11-18T04:15:52;14.57;;;3.13;;
33413;SDS011;60055;41.884;12.534;2022-11-18T04:18:21;21.88;;;4.53;;
33413;SDS011;60055;41.884;12.534;2022-11-18T04:20:47;17.30;;;3.50;;
33413;SDS011;60055;41.884;12.534;2022-11-18T04:23:12;11.85;;;3.08;;
33413;SDS011;60055;41.884;12.534;2022-11-18T04:25:38;16.63;;;3.90;;
33413;SDS011;60055;41.884;12.534;2022-11-18T04:28:04;14.35;;;3.47;;
33413;SDS011;60055;41.884;12.534;2022-11-18T04:30:30;21.20;;;3.53;;
33413;SDS011;60055;41.884;12.534;2022-11-18T04:32:57;14.23;;;3.55;;
33413;SDS011;60055;41.884;12.534;2022-11-18T04:35:23;16.55;;;3.25;;
33413;SDS011;60055;41.884;12.534;2022-11-18T04:37:49;16.80;;;4.05;;
33413;SDS011;60055;41.884;12.534;2022-11-18T04:40:15;17.98;;;3.55;;
33413;SDS011;60055;41.884;12.534;2022-11-18T04:42:41;17.73;;;3.85;;
33413;SDS011;60055;41.884;12.534;2022-11-18T04:45:07;18.23;;;3.70;;
33413;SDS011;60055;41.884;12.534;2022-11-18T04:47:33;18.33;;;3.78;;
33413;SDS011;60055;41.884;12.534;2022-11-18T04:49:59;17.42;;;3.55;;
33413;SDS011;60055;41.884;12.534;2022-11-18T04:52:25;20.00;;;3.47;;
33413;SDS011;60055;41.884;12.534;2022-11-18T04:54:50;15.30;;;3.03;;
33413;SDS011;60055;41.884;12.534;2022-11-18T04:57:16;20.70;;;3.70;;
33413;SDS011;60055;41.884;12.534;2022-11-18T04:59:41;16.55;;;3.20;;
33413;SDS011;60055;41.884;12.534;2022-11-18T05:02:07;15.07;;;3.03;;
33413;SDS011;60055;41.884;12.534;2022-11-18T05:04:33;17.05;;;3.08;;
33413;SDS011;60055;41.884;12.534;2022-11-18T05:07:01;16.90;;;3.08;;
33413;SDS011;60055;41.884;12.534;2022-11-18T05:09:27;18.20;;;3.22;;
33413;SDS011;60055;41.884;12.534;2022-11-18T05:11:53;25.05;;;3.38;;
33413;SDS011;60055;41.884;12.534;2022-11-18T05:14:37;13.02;;;2.90;;
33413;SDS011;60055;41.884;12.534;2022-11-18T05:17:04;18.95;;;2.72;;
33413;SDS011;60055;41.884;12.534;2022-11-18T05:19:31;16.67;;;2.90;;
33413;SDS011;60055;41.884;12.534;2022-11-18T05:21:56;16.85;;;2.70;;
33413;SDS011;60055;41.884;12.534;2022-11-18T05:24:22;15.05;;;2.22;;
33413;SDS011;60055;41.884;12.534;2022-11-18T05:26:49;17.75;;;2.85;;
33413;SDS011;60055;41.884;12.534;2022-11-18T05:29:16;16.13;;;2.65;;
33413;SDS011;60055;41.884;12.534;2022-11-18T05:31:43;17.42;;;2.05;;
33413;SDS011;60055;41.884;12.534;2022-11-18T05:34:10;16.65;;;2.38;;
33413;SDS011;60055;41.884;12.534;2022-11-18T05:36:35;13.20;;;2.47;;
33413;SDS011;60055;41.884;12.534;2022-11-18T05:39:02;16.67;;;3.03;;
33413;SDS011;60055;41.884;12.534;2022-11-18T05:41:28;18.55;;;2.45;;
33413;SDS011;60055;41.884;12.534;2022-11-18T05:46:37;17.08;;;2.33;;
33413;SDS011;60055;41.884;12.534;2022-11-18T05:49:03;21.42;;;2.97;;
33413;SDS011;60055;41.884;12.534;2022-11-18T05:51:28;17.13;;;2.50;;
33413;SDS011;60055;41.884;12.534;2022-11-18T05:53:54;20.05;;;2.55;;
33413;SDS011;60055;41.884;12.534;2022-11-18T05:56:26;16.55;;;2.30;;
33413;SDS011;60055;41.884;12.534;2022-11-18T05:58:53;18.20;;;2.40;;
33413;SDS011;60055;41.884;12.534;2022-11-18T06:01:24;20.35;;;2.30;;
33413;SDS011;60055;41.884;12.534;2022-11-18T06:04:33;19.45;;;2.28;;
33413;SDS011;60055;41.884;12.534;2022-11-18T06:07:19;20.75;;;2.53;;
33413;SDS011;60055;41.884;12.534;2022-11-18T06:09:48;15.50;;;2.35;;
33413;SDS011;60055;41.884;12.534;2022-11-18T06:12:20;22.67;;;3.35;;
33413;SDS011;60055;41.884;12.534;2022-11-18T06:14:50;25.55;;;3.10;;
33413;SDS011;60055;41.884;12.534;2022-11-18T06:17:22;27.50;;;3.10;;
33413;SDS011;60055;41.884;12.534;2022-11-18T06:19:55;22.52;;;3.50;;
33413;SDS011;60055;41.884;12.534;2022-11-18T06:22:21;23.10;;;4.55;;
33413;SDS011;60055;41.884;12.534;2022-11-18T06:24:47;24.70;;;4.28;;
33413;SDS011;60055;41.884;12.534;2022-11-18T06:27:13;26.10;;;4.45;;
33413;SDS011;60055;41.884;12.534;2022-11-18T06:29:39;26.67;;;4.40;;
33413;SDS011;60055;41.884;12.534;2022-11-18T06:32:05;30.88;;;4.05;;
33413;SDS011;60055;41.884;12.534;2022-11-18T06:34:31;36.30;;;4.47;;
33413;SDS011;60055;41.884;12.534;2022-11-18T06:36:57;31.77;;;5.15;;
33413;SDS011;60055;41.884;12.534;2022-11-18T06:39:25;29.17;;;4.93;;
33413;SDS011;60055;41.884;12.534;2022-11-18T06:41:54;30.17;;;4.60;;
33413;SDS011;60055;41.884;12.534;2022-11-18T06:44:19;36.20;;;4.55;;
33413;SDS011;60055;41.884;12.534;2022-11-18T06:46:45;28.05;;;4.68;;
33413;SDS011;60055;41.884;12.534;2022-11-18T06:49:22;29.85;;;4.35;;
33413;SDS011;60055;41.884;12.534;2022-11-18T06:51:50;23.92;;;4.00;;
33413;SDS011;60055;41.884;12.534;2022-11-18T06:54:21;21.73;;;4.38;;
33413;SDS011;60055;41.884;12.534;2022-11-18T06:56:47;28.65;;;5.22;;
33413;SDS011;60055;41.884;12.534;2022-11-18T06:59:13;34.15;;;4.43;;
33413;SDS011;60055;41.884;12.534;2022-11-18T07:01:39;34.22;;;3.72;;
33413;SDS011;60055;41.884;12.534;2022-11-18T07:04:06;25.33;;;3.70;;
33413;SDS011;60055;41.884;12.534;2022-11-18T07:06:33;29.58;;;4.05;;
33413;SDS011;60055;41.884;12.534;2022-11-18T07:09:03;28.60;;;3.90;;
33413;SDS011;60055;41.884;12.534;2022-11-18T07:11:31;26.30;;;3.90;;
33413;SDS011;60055;41.884;12.534;2022-11-18T07:13:58;26.17;;;3.97;;
33413;SDS011;60055;41.884;12.534;2022-11-18T07:16:24;28.35;;;4.25;;
33413;SDS011;60055;41.884;12.534;2022-11-18T07:18:51;26.05;;;3.58;;
33413;SDS011;60055;41.884;12.534;2022-11-18T07:21:19;28.52;;;3.95;;
33413;SDS011;60055;41.884;12.534;2022-11-18T07:23:49;24.70;;;3.58;;
33413;SDS011;60055;41.884;12.534;2022-11-18T07:26:15;28.30;;;3.47;;
33413;SDS011;60055;41.884;12.534;2022-11-18T07:28:41;29.17;;;3.60;;
33413;SDS011;60055;41.884;12.534;2022-11-18T07:31:09;26.23;;;3.35;;
33413;SDS011;60055;41.884;12.534;2022-11-18T07:33:36;28.60;;;3.65;;
33413;SDS011;60055;41.884;12.534;2022-11-18T07:36:12;23.42;;;3.20;;
33413;SDS011;60055;41.884;12.534;2022-11-18T07:38:43;27.58;;;4.20;;
33413;SDS011;60055;41.884;12.534;2022-11-18T07:41:10;27.63;;;4.60;;
33413;SDS011;60055;41.884;12.534;2022-11-18T07:43:37;29.30;;;4.70;;
33413;SDS011;60055;41.884;12.534;2022-11-18T07:46:37;24.10;;;3.75;;
33413;SDS011;60055;41.884;12.534;2022-11-18T07:49:00;21.95;;;4.15;;
33413;SDS011;60055;41.884;12.534;2022-11-18T07:51:29;21.73;;;3.60;;
33413;SDS011;60055;41.884;12.534;2022-11-18T07:54:11;19.50;;;3.60;;
33413;SDS011;60055;41.884;12.534;2022-11-18T07:56:41;20.80;;;3.80;;
33413;SDS011;60055;41.884;12.534;2022-11-18T07:59:07;24.80;;;4.68;;
33413;SDS011;60055;41.884;12.534;2022-11-18T08:01:32;22.42;;;4.63;;
33413;SDS011;60055;41.884;12.534;2022-11-18T08:04:06;24.67;;;5.20;;
33413;SDS011;60055;41.884;12.534;2022-11-18T08:06:33;29.40;;;4.03;;
33413;SDS011;60055;41.884;12.534;2022-11-18T08:08:59;28.77;;;4.10;;
33413;SDS011;60055;41.884;12.534;2022-11-18T08:11:26;23.10;;;3.67;;
33413;SDS011;60055;41.884;12.534;2022-11-18T08:13:51;18.23;;;3.90;;
33413;SDS011;60055;41.884;12.534;2022-11-18T08:16:18;26.63;;;4.20;;
33413;SDS011;60055;41.884;12.534;2022-11-18T08:18:45;26.67;;;3.80;;
33413;SDS011;60055;41.884;12.534;2022-11-18T08:21:14;26.15;;;3.75;;
33413;SDS011;60055;41.884;12.534;2022-11-18T08:23:49;27.95;;;4.90;;
33413;SDS011;60055;41.884;12.534;2022-11-18T08:26:16;27.25;;;4.45;;
33413;SDS011;60055;41.884;12.534;2022-11-18T08:28:42;21.05;;;4.72;;
33413;SDS011;60055;41.884;12.534;2022-11-18T08:31:11;26.63;;;4.18;;
33413;SDS011;60055;41.884;12.534;2022-11-18T08:33:42;21.65;;;4.63;;
33413;SDS011;60055;41.884;12.534;2022-11-18T08:36:08;24.25;;;4.50;;
33413;SDS011;60055;41.884;12.534;2022-11-18T08:38:37;34.85;;;5.25;;
33413;SDS011;60055;41.884;12.534;2022-11-18T08:41:02;34.78;;;5.68;;
33413;SDS011;60055;41.884;12.534;2022-11-18T08:43:29;32.90;;;5.60;;
33413;SDS011;60055;41.884;12.534;2022-11-18T08:45:55;24.05;;;5.30;;
33413;SDS011;60055;41.884;12.534;2022-11-18T08:48:21;30.30;;;5.35;;
33413;SDS011;60055;41.884;12.534;2022-11-18T08:50:48;30.27;;;4.85;;
33413;SDS011;60055;41.884;12.534;2022-11-18T08:53:14;17.15;;;3.83;;
33413;SDS011;60055;41.884;12.534;2022-11-18T08:55:43;25.90;;;4.40;;
33413;SDS011;60055;41.884;12.534;2022-11-18T08:58:10;21.75;;;4.60;;
33413;SDS011;60055;41.884;12.534;2022-11-18T09:00:35;19.63;;;4.57;;
33413;SDS011;60055;41.884;12.534;2022-11-18T09:03:02;23.10;;;4.13;;
33413;SDS011;60055;41.884;12.534;2022-11-18T09:05:28;25.95;;;3.40;;
33413;SDS011;60055;41.884;12.534;2022-11-18T09:07:54;20.50;;;3.47;;
33413;SDS011;60055;41.884;12.534;2022-11-18T09:10:20;23.35;;;3.72;;
33413;SDS011;60055;41.884;12.534;2022-11-18T09:12:47;20.60;;;3.45;;
33413;SDS011;60055;41.884;12.534;2022-11-18T09:15:12;23.38;;;3.13;;
33413;SDS011;60055;41.884;12.534;2022-11-18T09:17:39;18.85;;;2.60;;
33413;SDS011;60055;41.884;12.534;2022-11-18T09:20:08;20.45;;;3.17;;
33413;SDS011;60055;41.884;12.534;2022-11-18T09:22:35;23.52;;;3.15;;
33413;SDS011;60055;41.884;12.534;2022-11-18T09:25:01;18.20;;;2.78;;
33413;SDS011;60055;41.884;12.534;2022-11-18T09:27:27;25.85;;;3.08;;
33413;SDS011;60055;41.884;12.534;2022-11-18T09:29:53;14.65;;;2.50;;
33413;SDS011;60055;41.884;12.534;2022-11-18T09:32:21;20.38;;;3.10;;
33413;SDS011;60055;41.884;12.534;2022-11-18T09:34:49;17.42;;;3.25;;
33413;SDS011;60055;41.884;12.534;2022-11-18T09:37:15;24.58;;;3.42;;
33413;SDS011;60055;41.884;12.534;2022-11-18T09:39:41;30.33;;;4.32;;
33413;SDS011;60055;41.884;12.534;2022-11-18T09:44:48;25.77;;;3.45;;
33413;SDS011;60055;41.884;12.534;2022-11-18T09:47:31;32.38;;;3.60;;
33413;SDS011;60055;41.884;12.534;2022-11-18T09:50:00;33.65;;;3.63;;
33413;SDS011;60055;41.884;12.534;2022-11-18T09:52:32;24.30;;;3.40;;
33413;SDS011;60055;41.884;12.534;2022-11-18T09:55:03;26.83;;;3.72;;
33413;SDS011;60055;41.884;12.534;2022-11-18T09:57:52;23.60;;;4.10;;
33413;SDS011;60055;41.884;12.534;2022-11-18T10:00:24;32.10;;;4.32;;
33413;SDS011;60055;41.884;12.534;2022-11-18T10:03:13;24.65;;;3.70;;
33413;SDS011;60055;41.884;12.534;2022-11-18T10:11:42;27.45;;;3.92;;
33413;SDS011;60055;41.884;12.534;2022-11-18T10:14:42;30.45;;;4.18;;
33413;SDS011;60055;41.884;12.534;2022-11-18T10:17:50;35.67;;;4.72;;
33413;SDS011;60055;41.884;12.534;2022-11-18T10:23:29;26.80;;;3.67;;
33413;SDS011;60055;41.884;12.534;2022-11-18T10:25:55;25.05;;;3.75;;
33413;SDS011;60055;41.884;12.534;2022-11-18T10:28:25;30.65;;;4.15;;
33413;SDS011;60055;41.884;12.534;2022-11-18T10:31:10;34.28;;;4.35;;
33413;SDS011;60055;41.884;12.534;2022-11-18T10:33:36;36.38;;;4.43;;
33413;SDS011;60055;41.884;12.534;2022-11-18T10:38:41;28.45;;;4.30;;
33413;SDS011;60055;41.884;12.534;2022-11-18T10:41:11;21.67;;;4.07;;
33413;SDS011;60055;41.884;12.534;2022-11-18T10:43:41;24.77;;;3.60;;
33413;SDS011;60055;41.884;12.534;2022-11-18T10:46:28;24.63;;;4.00;;
33413;SDS011;60055;41.884;12.534;2022-11-18T10:56:59;25.38;;;3.30;;
33413;SDS011;60055;41.884;12.534;2022-11-18T10:59:51;29.83;;;3.78;;
33413;SDS011;60055;41.884;12.534;2022-11-18T11:02:33;30.20;;;4.90;;
33413;SDS011;60055;41.884;12.534;2022-11-18T11:05:22;23.60;;;3.70;;
33413;SDS011;60055;41.884;12.534;2022-11-18T11:10:29;30.40;;;3.55;;
33413;SDS011;60055;41.884;12.534;2022-11-18T11:13:02;25.77;;;2.97;;
33413;SDS011;60055;41.884;12.534;2022-11-18T11:15:38;31.77;;;4.15;;
33413;SDS011;60055;41.884;12.534;2022-11-18T11:18:13;25.90;;;3.58;;
33413;SDS011;60055;41.884;12.534;2022-11-18T11:21:22;19.05;;;3.10;;
33413;SDS011;60055;41.884;12.534;2022-11-18T11:23:51;22.58;;;2.88;;
33413;SDS011;60055;41.884;12.534;2022-11-18T11:26:21;17.17;;;2.90;;
33413;SDS011;60055;41.884;12.534;2022-11-18T11:31:54;23.65;;;4.43;;
33413;SDS011;60055;41.884;12.534;2022-11-18T11:34:50;22.27;;;3.97;;
33413;SDS011;60055;41.884;12.534;2022-11-18T11:37:54;21.58;;;3.20;;
33413;SDS011;60055;41.884;12.534;2022-11-18T11:46:27;18.85;;;3.60;;
33413;SDS011;60055;41.884;12.534;2022-11-18T11:49:39;19.20;;;2.85;;
33413;SDS011;60055;41.884;12.534;2022-11-18T11:52:19;16.00;;;2.80;;
33413;SDS011;60055;41.884;12.534;2022-11-18T12:00:10;22.95;;;2.63;;
33413;SDS011;60055;41.884;12.534;2022-11-18T12:05:30;16.52;;;2.63;;
33413;SDS011;60055;41.884;12.534;2022-11-18T12:08:18;22.27;;;2.80;;
33413;SDS011;60055;41.884;12.534;2022-11-18T12:13:35;13.98;;;2.42;;
33413;SDS011;60055;41.884;12.534;2022-11-18T12:16:16;15.02;;;2.72;;
33413;SDS011;60055;41.884;12.534;2022-11-18T12:18:47;17.40;;;2.97;;
33413;SDS011;60055;41.884;12.534;2022-11-18T12:26:59;15.93;;;2.63;;
33413;SDS011;60055;41.884;12.534;2022-11-18T12:32:33;13.05;;;2.72;;
33413;SDS011;60055;41.884;12.534;2022-11-18T12:37:37;17.25;;;2.50;;
33413;SDS011;60055;41.884;12.534;2022-11-18T12:40:07;22.67;;;3.35;;
33413;SDS011;60055;41.884;12.534;2022-11-18T12:48:26;21.90;;;3.00;;
33413;SDS011;60055;41.884;12.534;2022-11-18T12:50:53;26.73;;;3.30;;
33413;SDS011;60055;41.884;12.534;2022-11-18T12:55:57;29.98;;;3.47;;
33413;SDS011;60055;41.884;12.534;2022-11-18T12:58:24;25.35;;;3.53;;
33413;SDS011;60055;41.884;12.534;2022-11-18T13:01:02;37.20;;;4.18;;
33413;SDS011;60055;41.884;12.534;2022-11-18T13:03:37;26.77;;;4.15;;
33413;SDS011;60055;41.884;12.534;2022-11-18T13:06:11;25.38;;;3.50;;
33413;SDS011;60055;41.884;12.534;2022-11-18T13:08:51;28.67;;;4.43;;
33413;SDS011;60055;41.884;12.534;2022-11-18T13:11:28;36.40;;;4.63;;
33413;SDS011;60055;41.884;12.534;2022-11-18T13:14:14;39.03;;;5.27;;
33413;SDS011;60055;41.884;12.534;2022-11-18T13:17:00;37.47;;;5.03;;
33413;SDS011;60055;41.884;12.534;2022-11-18T13:19:54;37.03;;;5.28;;
33413;SDS011;60055;41.884;12.534;2022-11-18T13:22:24;37.22;;;4.63;;
33413;SDS011;60055;41.884;12.534;2022-11-18T13:25:21;29.40;;;4.95;;
33413;SDS011;60055;41.884;12.534;2022-11-18T13:27:50;30.55;;;4.25;;
33413;SDS011;60055;41.884;12.534;2022-11-18T13:33:01;28.58;;;4.70;;
33413;SDS011;60055;41.884;12.534;2022-11-18T13:35:30;34.15;;;4.70;;
33413;SDS011;60055;41.884;12.534;2022-11-18T13:37:57;34.90;;;5.00;;
33413;SDS011;60055;41.884;12.534;2022-11-18T13:40:37;37.63;;;4.75;;
33413;SDS011;60055;41.884;12.534;2022-11-18T13:43:28;30.13;;;4.55;;
33413;SDS011;60055;41.884;12.534;2022-11-18T13:45:59;33.13;;;4.53;;
33413;SDS011;60055;41.884;12.534;2022-11-18T13:48:35;35.47;;;5.35;;
33413;SDS011;60055;41.884;12.534;2022-11-18T13:51:04;34.10;;;4.95;;
33413;SDS011;60055;41.884;12.534;2022-11-18T13:53:31;23.85;;;4.65;;
33413;SDS011;60055;41.884;12.534;2022-11-18T13:58:50;31.33;;;4.55;;
33413;SDS011;60055;41.884;12.534;2022-11-18T14:01:21;41.20;;;5.65;;
33413;SDS011;60055;41.884;12.534;2022-11-18T14:04:06;33.90;;;4.82;;
33413;SDS011;60055;41.884;12.534;2022-11-18T14:06:41;32.45;;;5.10;;
33413;SDS011;60055;41.884;12.534;2022-11-18T14:09:25;33.22;;;5.45;;
33413;SDS011;60055;41.884;12.534;2022-11-18T14:14:42;34.45;;;5.47;;
33413;SDS011;60055;41.884;12.534;2022-11-18T14:17:24;41.40;;;5.03;;
33413;SDS011;60055;41.884;12.534;2022-11-18T14:19:52;32.40;;;4.13;;
33413;SDS011;60055;41.884;12.534;2022-11-18T14:27:27;32.22;;;5.28;;
33413;SDS011;60055;41.884;12.534;2022-11-18T14:33:11;35.60;;;5.22;;
33413;SDS011;60055;41.884;12.534;2022-11-18T14:35:48;30.02;;;4.38;;
33413;SDS011;60055;41.884;12.534;2022-11-18T14:38:19;35.75;;;6.25;;
33413;SDS011;60055;41.884;12.534;2022-11-18T14:40:58;33.08;;;4.65;;
33413;SDS011;60055;41.884;12.534;2022-11-18T14:43:27;28.52;;;4.18;;
33413;SDS011;60055;41.884;12.534;2022-11-18T14:46:01;41.97;;;4.65;;
33413;SDS011;60055;41.884;12.534;2022-11-18T14:48:49;32.65;;;4.40;;
33413;SDS011;60055;41.884;12.534;2022-11-18T14:51:15;33.95;;;4.55;;
33413;SDS011;60055;41.884;12.534;2022-11-18T14:53:41;22.77;;;4.25;;
33413;SDS011;60055;41.884;12.534;2022-11-18T14:56:12;28.58;;;4.13;;
33413;SDS011;60055;41.884;12.534;2022-11-18T14:58:45;33.35;;;4.55;;
33413;SDS011;60055;41.884;12.534;2022-11-18T15:01:12;26.52;;;4.20;;
33413;SDS011;60055;41.884;12.534;2022-11-18T15:03:38;33.25;;;4.35;;
33413;SDS011;60055;41.884;12.534;2022-11-18T15:06:12;26.77;;;4.78;;
33413;SDS011;60055;41.884;12.534;2022-11-18T15:08:43;27.77;;;4.72;;
33413;SDS011;60055;41.884;12.534;2022-11-18T15:11:11;24.13;;;4.75;;
33413;SDS011;60055;41.884;12.534;2022-11-18T15:13:37;26.95;;;5.10;;
33413;SDS011;60055;41.884;12.534;2022-11-18T15:16:14;27.95;;;4.53;;
33413;SDS011;60055;41.884;12.534;2022-11-18T15:18:49;30.10;;;4.18;;
33413;SDS011;60055;41.884;12.534;2022-11-18T15:21:17;37.58;;;5.25;;
33413;SDS011;60055;41.884;12.534;2022-11-18T15:23:43;35.70;;;5.10;;
33413;SDS011;60055;41.884;12.534;2022-11-18T15:28:52;36.42;;;5.60;;
33413;SDS011;60055;41.884;12.534;2022-11-18T15:31:20;31.35;;;5.07;;
33413;SDS011;60055;41.884;12.534;2022-11-18T15:33:47;30.48;;;4.68;;
33413;SDS011;60055;41.884;12.534;2022-11-18T15:36:16;33.45;;;5.03;;
33413;SDS011;60055;41.884;12.534;2022-11-18T15:38:47;31.60;;;4.68;;
33413;SDS011;60055;41.884;12.534;2022-11-18T15:41:14;27.58;;;4.93;;
33413;SDS011;60055;41.884;12.534;2022-11-18T15:43:49;33.08;;;4.82;;
33413;SDS011;60055;41.884;12.534;2022-11-18T15:46:16;26.70;;;5.25;;
33413;SDS011;60055;41.884;12.534;2022-11-18T15:48:44;26.15;;;4.43;;
33413;SDS011;60055;41.884;12.534;2022-11-18T15:51:11;27.65;;;4.35;;
33413;SDS011;60055;41.884;12.534;2022-11-18T15:53:37;38.20;;;4.97;;
33413;SDS011;60055;41.884;12.534;2022-11-18T16:01:20;31.60;;;4.60;;
33413;SDS011;60055;41.884;12.534;2022-11-18T16:03:48;35.17;;;4.78;;
33413;SDS011;60055;41.884;12.534;2022-11-18T16:06:24;31.38;;;4.78;;
33413;SDS011;60055;41.884;12.534;2022-11-18T16:08:50;25.45;;;4.18;;
33413;SDS011;60055;41.884;12.534;2022-11-18T16:11:17;32.30;;;4.80;;
33413;SDS011;60055;41.884;12.534;2022-11-18T16:14:09;36.78;;;5.18;;
33413;SDS011;60055;41.884;12.534;2022-11-18T16:16:39;33.20;;;5.07;;
33413;SDS011;60055;41.884;12.534;2022-11-18T16:19:09;26.58;;;4.50;;
33413;SDS011;60055;41.884;12.534;2022-11-18T16:21:39;29.17;;;4.75;;
33413;SDS011;60055;41.884;12.534;2022-11-18T16:24:08;27.50;;;5.20;;
33413;SDS011;60055;41.884;12.534;2022-11-18T16:26:47;33.80;;;5.50;;
33413;SDS011;60055;41.884;12.534;2022-11-18T16:29:13;25.60;;;7.22;;
33413;SDS011;60055;41.884;12.534;2022-11-18T16:31:40;47.60;;;11.85;;
33413;SDS011;60055;41.884;12.534;2022-11-18T16:36:48;45.60;;;9.80;;
33413;SDS011;60055;41.884;12.534;2022-11-18T16:39:21;39.90;;;8.80;;
33413;SDS011;60055;41.884;12.534;2022-11-18T16:41:49;36.50;;;8.07;;
33413;SDS011;60055;41.884;12.534;2022-11-18T16:44:19;40.22;;;7.55;;
33413;SDS011;60055;41.884;12.534;2022-11-18T16:46:48;41.72;;;6.82;;
33413;SDS011;60055;41.884;12.534;2022-11-18T16:49:17;33.67;;;6.70;;